createdAt,value
2023-03-10T00:00:41.916Z,66.00
2023-03-10T00:03:11.316Z,66.30
2023-03-10T00:05:39.716Z,66.20
2023-03-10T00:08:08.224Z,66.50
2023-03-10T00:10:36.117Z,66.30
2023-03-10T00:13:03.916Z,66.40
2023-03-10T00:15:31.783Z,66.50
2023-03-10T00:17:59.579Z,66.60
2023-03-10T00:20:28.834Z,66.80
2023-03-10T00:22:56.784Z,66.50
2023-03-10T00:25:24.590Z,66.40
2023-03-10T00:27:53.556Z,65.90
2023-03-10T00:30:21.558Z,65.90
2023-03-10T00:32:50.864Z,65.60
2023-03-10T00:35:18.929Z,65.60
2023-03-10T00:37:48.117Z,65.40
2023-03-10T00:40:16.489Z,65.30
2023-03-10T00:42:50.252Z,65.20
2023-03-10T00:45:18.453Z,64.90
2023-03-10T00:47:46.293Z,64.70
2023-03-10T00:50:14.080Z,64.80
2023-03-10T00:52:41.943Z,64.70
2023-03-10T00:55:11.318Z,64.50
2023-03-10T00:57:39.216Z,64.80
2023-03-10T01:00:08.719Z,64.70
2023-03-10T01:02:36.531Z,65.00
2023-03-10T01:05:04.607Z,65.10
2023-03-10T01:07:32.396Z,63.70
2023-03-10T01:10:00.190Z,63.90
2023-03-10T01:12:29.357Z,63.90
2023-03-10T01:14:57.254Z,63.90
2023-03-10T01:17:25.175Z,64.20
2023-03-10T01:19:52.984Z,65.00
2023-03-10T01:22:20.825Z,65.20
2023-03-10T01:24:48.693Z,65.60
2023-03-10T01:27:16.639Z,65.60
2023-03-10T01:29:45.767Z,66.30
2023-03-10T01:32:13.653Z,66.60
2023-03-10T01:34:41.543Z,66.90
2023-03-10T01:37:09.416Z,67.30
2023-03-10T01:39:37.640Z,67.70
2023-03-10T01:42:05.916Z,68.70
2023-03-10T01:44:33.985Z,69.80
2023-03-10T01:47:03.297Z,70.40
2023-03-10T01:49:37.789Z,71.20
2023-03-10T01:52:11.428Z,72.10
2023-03-10T01:54:46.628Z,72.40
2023-03-10T01:57:15.960Z,74.00
2023-03-10T01:59:44.488Z,75.50
2023-03-10T02:02:14.065Z,76.50
2023-03-10T02:04:44.851Z,77.20
2023-03-10T02:07:16.917Z,78.90
2023-03-10T02:09:47.473Z,80.30
2023-03-10T02:12:16.397Z,80.90
2023-03-10T02:14:45.635Z,81.50
2023-03-10T02:17:19.034Z,81.00
2023-03-10T02:20:11.067Z,82.40
2023-03-10T02:22:40.333Z,83.50
2023-03-10T02:25:15.320Z,83.90
2023-03-10T02:27:45.094Z,83.60
2023-03-10T02:30:15.846Z,82.80
2023-03-10T02:32:49.292Z,81.10
2023-03-10T02:35:17.194Z,82.10
2023-03-10T02:37:45.146Z,82.50
2023-03-10T02:40:33.876Z,82.50
2023-03-10T02:43:06.700Z,83.40
2023-03-10T02:45:38.783Z,83.80
2023-03-10T02:48:07.991Z,83.10
2023-03-10T02:50:39.683Z,83.30
2023-03-10T02:53:12.694Z,83.10
2023-03-10T02:55:40.684Z,83.00
2023-03-10T02:58:10.334Z,82.30
2023-03-10T03:00:39.094Z,82.20
2023-03-10T03:03:07.034Z,82.40
2023-03-10T03:05:35.293Z,82.20
2023-03-10T03:08:03.140Z,82.70
2023-03-10T03:10:31.073Z,82.50
2023-03-10T03:12:58.922Z,82.90
2023-03-10T03:15:28.266Z,83.30
2023-03-10T03:17:58.563Z,83.50
2023-03-10T03:20:27.241Z,83.80
2023-03-10T03:22:55.603Z,84.00
2023-03-10T03:25:25.027Z,83.30
2023-03-10T03:27:53.106Z,82.50
2023-03-10T03:30:23.803Z,82.80
2023-03-10T03:32:53.850Z,82.40
2023-03-10T03:35:24.409Z,82.10
2023-03-10T03:37:52.998Z,81.60
2023-03-10T03:40:22.422Z,81.50
2023-03-10T03:42:52.521Z,81.90
2023-03-10T03:45:22.712Z,81.90
2023-03-10T03:47:52.168Z,82.70
2023-03-10T03:50:21.742Z,83.00
2023-03-10T03:52:49.706Z,83.00
2023-03-10T03:55:18.781Z,83.70
2023-03-10T03:57:47.548Z,82.30
2023-03-10T04:00:20.353Z,81.20
2023-03-10T04:02:48.416Z,81.30
2023-03-10T04:05:17.984Z,79.10
2023-03-10T04:07:46.128Z,78.90
2023-03-10T04:10:15.843Z,79.00
2023-03-10T04:12:43.771Z,78.20
2023-03-10T04:15:12.484Z,78.30
2023-03-10T04:17:40.391Z,78.50
2023-03-10T04:20:09.755Z,80.40
2023-03-10T04:22:38.937Z,80.50
2023-03-10T04:25:08.631Z,80.90
2023-03-10T04:27:36.558Z,80.10
2023-03-10T04:30:05.844Z,79.80
2023-03-10T04:32:33.750Z,78.80
2023-03-10T04:35:01.833Z,78.30
2023-03-10T04:37:29.984Z,78.10
2023-03-10T04:39:59.211Z,77.60
2023-03-10T04:42:28.142Z,77.30
2023-03-10T04:44:55.993Z,76.50
2023-03-10T04:47:23.839Z,76.80
2023-03-10T04:49:51.765Z,77.50
2023-03-10T04:52:19.716Z,77.80
2023-03-10T04:54:47.594Z,78.40
2023-03-10T04:57:16.833Z,78.60
2023-03-10T04:59:44.945Z,78.90
2023-03-10T05:02:12.770Z,78.20
2023-03-10T05:04:40.719Z,78.10
2023-03-10T05:07:08.602Z,78.30
2023-03-10T05:09:37.232Z,77.90
2023-03-10T05:12:06.569Z,77.80
2023-03-10T05:14:35.734Z,78.10
2023-03-10T05:17:04.013Z,78.30
2023-03-10T05:19:31.896Z,78.70
2023-03-10T05:21:59.707Z,79.60
2023-03-10T05:24:27.543Z,80.90
2023-03-10T05:26:55.456Z,82.50
2023-03-10T05:29:23.477Z,84.00
2023-03-10T05:31:52.643Z,85.80
2023-03-10T05:34:20.495Z,87.10
2023-03-10T05:36:48.298Z,88.50
2023-03-10T05:39:16.130Z,88.40
2023-03-10T05:41:43.974Z,89.80
2023-03-10T05:44:11.815Z,90.60
2023-03-10T05:46:39.693Z,92.00
2023-03-10T05:49:09.069Z,91.80
2023-03-10T05:51:36.982Z,92.50
2023-03-10T05:54:06.155Z,92.30
2023-03-10T05:56:34.266Z,90.80
2023-03-10T05:59:02.923Z,90.30
2023-03-10T06:01:30.966Z,90.40
2023-03-10T06:03:58.866Z,88.30
2023-03-10T06:06:28.400Z,88.10
2023-03-10T06:08:56.630Z,88.00
2023-03-10T06:11:24.813Z,88.00
2023-03-10T06:13:52.644Z,87.40
2023-03-10T06:16:20.591Z,88.00
2023-03-10T06:18:48.488Z,88.10
2023-03-10T06:21:16.444Z,87.80
2023-03-10T06:23:45.660Z,86.60
2023-03-10T06:26:16.523Z,86.30
2023-03-10T06:28:46.064Z,85.50
2023-03-10T06:31:16.296Z,84.70
2023-03-10T06:33:44.693Z,84.60
2023-03-10T06:36:15.339Z,83.50
2023-03-10T06:38:43.554Z,83.00
2023-03-10T06:41:12.926Z,82.50
2023-03-10T06:43:41.542Z,81.80
2023-03-10T06:46:11.367Z,81.30
2023-03-10T06:48:40.379Z,81.20
2023-03-10T06:51:09.685Z,81.00
2023-03-10T06:53:37.785Z,81.20
2023-03-10T06:56:08.277Z,79.80
2023-03-10T06:58:38.261Z,80.60
2023-03-10T07:01:07.542Z,79.70
2023-03-10T07:03:35.950Z,78.80
2023-03-10T07:06:04.938Z,79.70
2023-03-10T07:08:32.894Z,79.30
2023-03-10T07:11:00.697Z,80.50
2023-03-10T07:13:28.563Z,79.90
2023-03-10T07:15:57.904Z,79.60
2023-03-10T07:18:27.805Z,79.40
2023-03-10T07:20:55.628Z,78.60
2023-03-10T07:23:23.751Z,78.20
2023-03-10T07:25:53.611Z,78.10
2023-03-10T07:28:21.533Z,77.60
2023-03-10T07:30:49.589Z,76.60
2023-03-10T07:33:19.087Z,76.30
2023-03-10T07:35:47.040Z,76.40
2023-03-10T07:38:14.935Z,76.70
2023-03-10T07:40:43.119Z,77.30
2023-03-10T07:43:10.937Z,77.50
2023-03-10T07:45:39.778Z,79.50
2023-03-10T07:48:08.221Z,80.20
2023-03-10T07:50:37.380Z,82.10
2023-03-10T07:53:05.258Z,83.30
2023-03-10T07:55:33.197Z,82.80
2023-03-10T07:58:01.306Z,83.10
2023-03-10T08:00:29.483Z,85.30
2023-03-10T08:02:57.306Z,86.60
2023-03-10T08:05:25.238Z,86.70
2023-03-10T08:07:54.406Z,86.70
2023-03-10T08:10:22.305Z,88.10
2023-03-10T08:12:50.134Z,88.00
2023-03-10T08:15:18.174Z,86.60
2023-03-10T08:17:45.997Z,85.90
2023-03-10T08:20:14.256Z,84.30
2023-03-10T08:22:42.072Z,83.30
2023-03-10T08:25:12.513Z,83.50
2023-03-10T08:27:41.518Z,82.80
2023-03-10T08:30:10.643Z,81.40
2023-03-10T08:32:38.670Z,80.80
2023-03-10T08:35:08.223Z,80.30
2023-03-10T08:37:36.035Z,79.40
2023-03-10T08:40:08.195Z,79.30
2023-03-10T08:42:37.466Z,79.40
2023-03-10T08:45:08.538Z,76.50
2023-03-10T08:47:36.959Z,76.90
2023-03-10T08:50:05.682Z,75.00
2023-03-10T08:52:34.037Z,75.10
2023-03-10T08:55:01.848Z,74.40
2023-03-10T08:57:29.710Z,75.50
2023-03-10T08:59:58.912Z,74.10
2023-03-10T09:02:29.391Z,73.20
2023-03-10T09:04:57.322Z,73.40
2023-03-10T09:07:25.159Z,73.50
2023-03-10T09:09:52.961Z,75.40
2023-03-10T09:12:20.789Z,74.30
2023-03-10T09:14:48.799Z,73.70
2023-03-10T09:17:17.984Z,73.90
2023-03-10T09:19:45.771Z,73.50
2023-03-10T09:22:13.588Z,74.80
2023-03-10T09:24:41.472Z,74.10
2023-03-10T09:27:09.291Z,75.30
2023-03-10T09:29:43.143Z,77.50
2023-03-10T09:32:11.848Z,79.60
2023-03-10T09:34:41.804Z,81.30
2023-03-10T09:37:09.851Z,82.30
2023-03-10T09:39:37.703Z,83.00
2023-03-10T09:42:38.283Z,83.90
2023-03-10T09:45:24.090Z,83.00
2023-03-10T09:48:08.598Z,83.20
2023-03-10T09:50:43.324Z,83.70
2023-03-10T09:53:26.539Z,83.60
2023-03-10T09:55:54.639Z,81.90
2023-03-10T09:58:31.299Z,82.10
2023-03-10T10:01:00.167Z,82.30
2023-03-10T10:03:46.378Z,83.30
2023-03-10T10:06:28.027Z,82.70
2023-03-10T10:09:04.742Z,81.80
2023-03-10T10:11:34.257Z,80.10
2023-03-10T10:14:27.710Z,79.70
2023-03-10T10:17:04.809Z,80.50
2023-03-10T10:19:36.318Z,79.40
2023-03-10T10:22:11.389Z,78.30
2023-03-10T10:24:40.619Z,77.40
2023-03-10T10:27:08.500Z,77.10
2023-03-10T10:29:37.997Z,76.00
2023-03-10T10:32:09.874Z,76.20
2023-03-10T10:34:39.444Z,77.20
2023-03-10T10:37:25.117Z,78.20
2023-03-10T10:39:54.617Z,77.00
2023-03-10T10:42:25.059Z,76.80
2023-03-10T10:44:54.863Z,77.90
2023-03-10T10:47:29.286Z,79.00
2023-03-10T10:50:10.532Z,77.70
2023-03-10T10:52:41.633Z,78.00
2023-03-10T10:55:27.336Z,78.40
2023-03-10T10:57:57.832Z,78.50
2023-03-10T11:00:28.312Z,78.10
2023-03-10T11:02:56.998Z,76.50
2023-03-10T11:05:32.676Z,77.20
2023-03-10T11:08:18.789Z,75.60
2023-03-10T11:10:52.047Z,76.00
2023-03-10T11:13:25.810Z,75.00
2023-03-10T11:16:00.944Z,75.40
2023-03-10T11:18:32.604Z,75.10
2023-03-10T11:21:07.391Z,74.60
2023-03-10T11:23:43.224Z,75.20
2023-03-10T11:26:23.525Z,74.30
2023-03-10T11:28:55.468Z,74.30
2023-03-10T11:31:35.169Z,76.10
2023-03-10T11:34:16.845Z,76.10
2023-03-10T11:36:56.834Z,77.40
2023-03-10T11:39:41.622Z,74.60
2023-03-10T11:42:17.218Z,76.20
2023-03-10T11:44:55.843Z,75.50
2023-03-10T11:47:40.746Z,76.00
2023-03-10T11:50:20.502Z,77.10
2023-03-10T11:52:49.442Z,77.10
2023-03-10T11:55:21.865Z,76.10
2023-03-10T11:57:54.084Z,78.30
2023-03-10T12:00:28.444Z,78.20
2023-03-10T12:03:12.396Z,77.00
2023-03-10T12:05:51.829Z,77.80
2023-03-10T12:08:23.741Z,76.80
2023-03-10T12:10:55.183Z,75.40
2023-03-10T12:13:27.002Z,75.00
2023-03-10T12:15:59.605Z,74.90
2023-03-10T12:18:28.009Z,76.70
2023-03-10T12:21:18.999Z,76.20
2023-03-10T12:23:48.250Z,75.20
2023-03-10T12:26:56.052Z,74.70
2023-03-10T12:29:32.709Z,76.60
2023-03-10T12:32:00.862Z,76.30
2023-03-10T12:34:34.399Z,77.40
2023-03-10T12:37:08.282Z,77.00
2023-03-10T12:39:41.558Z,77.30
2023-03-10T12:42:31.401Z,79.30
2023-03-10T12:45:17.097Z,80.10
2023-03-10T12:47:54.739Z,79.00
2023-03-10T12:50:34.127Z,81.50
2023-03-10T12:53:16.501Z,81.30
2023-03-10T12:55:44.378Z,82.00
2023-03-10T12:58:18.480Z,83.90
2023-03-10T13:00:50.589Z,82.50
2023-03-10T13:03:31.288Z,82.90
2023-03-10T13:06:02.956Z,82.90
2023-03-10T13:08:45.426Z,83.90
2023-03-10T13:11:28.299Z,83.90
2023-03-10T13:14:01.326Z,84.10
2023-03-10T13:16:30.591Z,84.80
2023-03-10T13:19:00.507Z,83.90
2023-03-10T13:21:31.277Z,82.00
2023-03-10T13:24:00.418Z,81.20
2023-03-10T13:26:28.678Z,81.90
2023-03-10T13:29:00.368Z,82.00
2023-03-10T13:31:30.233Z,81.30
2023-03-10T13:33:59.145Z,82.10
2023-03-10T13:36:34.797Z,82.70
2023-03-10T13:39:15.768Z,84.10
2023-03-10T13:41:46.679Z,85.00
2023-03-10T13:44:21.098Z,85.60
2023-03-10T13:46:51.726Z,85.20
2023-03-10T13:49:22.127Z,85.80
2023-03-10T13:51:54.767Z,85.70
2023-03-10T13:54:24.524Z,86.00
2023-03-10T13:56:53.705Z,85.50
2023-03-10T13:59:26.467Z,86.40
2023-03-10T14:01:57.283Z,85.80
2023-03-10T14:04:46.367Z,86.30
2023-03-10T14:07:17.967Z,87.00
2023-03-10T14:09:47.439Z,87.30
2023-03-10T14:12:16.501Z,87.80
2023-03-10T14:14:45.683Z,88.70
2023-03-10T14:17:31.885Z,88.70
2023-03-10T14:19:59.736Z,89.50
2023-03-10T14:22:35.300Z,89.30
2023-03-10T14:25:06.901Z,89.30
2023-03-10T14:27:35.928Z,89.90
2023-03-10T14:30:18.547Z,89.60
2023-03-10T14:32:46.780Z,88.20
2023-03-10T14:35:16.035Z,87.60
2023-03-10T14:37:43.866Z,88.20
2023-03-10T14:40:13.225Z,87.60
2023-03-10T14:42:42.446Z,86.80
2023-03-10T14:45:23.736Z,85.30
2023-03-10T14:47:52.315Z,86.10
2023-03-10T14:50:21.697Z,85.30
2023-03-10T14:52:49.572Z,84.30
2023-03-10T14:55:17.935Z,86.00
2023-03-10T14:57:47.920Z,84.20
2023-03-10T15:00:20.013Z,84.60
2023-03-10T15:02:49.111Z,85.00
2023-03-10T15:05:17.913Z,84.10
2023-03-10T15:07:47.359Z,84.50
2023-03-10T15:10:15.849Z,86.60
2023-03-10T15:12:44.945Z,87.60
2023-03-10T15:15:19.027Z,87.90
2023-03-10T15:17:47.210Z,89.90
2023-03-10T15:20:19.259Z,91.80
2023-03-10T15:22:47.803Z,93.20
2023-03-10T15:25:17.384Z,94.90
2023-03-10T15:27:46.816Z,95.70
2023-03-10T15:30:21.268Z,92.80
2023-03-10T15:32:49.371Z,86.90
2023-03-10T15:35:17.560Z,87.20
2023-03-10T15:37:45.793Z,87.20
2023-03-10T15:40:17.483Z,87.50
2023-03-10T15:42:46.166Z,84.30
2023-03-10T15:45:14.964Z,82.30
2023-03-10T15:47:44.265Z,82.60
2023-03-10T15:50:14.004Z,81.90
2023-03-10T15:52:46.894Z,81.80
2023-03-10T15:55:16.602Z,81.30
2023-03-10T15:57:44.978Z,79.80
2023-03-10T16:00:16.861Z,78.90
2023-03-10T16:02:46.703Z,78.20
2023-03-10T16:05:15.058Z,79.10
2023-03-10T16:07:42.908Z,79.60
2023-03-10T16:10:12.567Z,81.00
2023-03-10T16:12:40.707Z,81.30
2023-03-10T16:15:09.852Z,84.20
2023-03-10T16:17:37.708Z,86.40
2023-03-10T16:20:12.103Z,86.90
2023-03-10T16:22:41.670Z,86.80
2023-03-10T16:25:11.607Z,88.90
2023-03-10T16:27:39.467Z,87.10
2023-03-10T16:30:09.120Z,86.50
2023-03-10T16:32:37.224Z,85.90
2023-03-10T16:35:07.801Z,84.90
2023-03-10T16:37:35.694Z,84.80
2023-03-10T16:40:04.433Z,84.20
2023-03-10T16:42:35.797Z,85.90
2023-03-10T16:45:04.011Z,86.80
2023-03-10T16:47:31.939Z,86.40
2023-03-10T16:49:59.793Z,87.10
2023-03-10T16:52:29.078Z,87.30
2023-03-10T16:54:58.468Z,87.50
2023-03-10T16:57:26.361Z,89.70
2023-03-10T16:59:54.269Z,92.50
2023-03-10T17:02:22.140Z,93.20
2023-03-10T17:04:50.053Z,93.00
2023-03-10T17:07:19.249Z,87.30
2023-03-10T17:09:49.444Z,87.80
2023-03-10T17:12:17.617Z,87.20
2023-03-10T17:14:45.597Z,84.70
2023-03-10T17:17:14.052Z,82.70
2023-03-10T17:19:41.887Z,81.20
2023-03-10T17:22:09.812Z,80.20
2023-03-10T17:24:37.688Z,81.00
2023-03-10T17:27:07.389Z,81.50
2023-03-10T17:29:35.223Z,81.00
2023-03-10T17:32:03.179Z,80.50
2023-03-10T17:34:31.171Z,80.00
2023-03-10T17:36:59.262Z,80.50
2023-03-10T17:39:27.985Z,80.30
2023-03-10T17:41:55.849Z,80.70
2023-03-10T17:44:25.158Z,79.90
2023-03-10T17:46:55.868Z,78.90
2023-03-10T17:49:23.926Z,79.20
2023-03-10T17:51:51.889Z,80.00
2023-03-10T17:54:21.810Z,79.30
2023-03-10T17:56:50.746Z,79.70
2023-03-10T17:59:19.170Z,80.40
2023-03-10T18:01:49.574Z,80.50
2023-03-10T18:04:17.830Z,77.90
2023-03-10T18:06:45.735Z,78.30
2023-03-10T18:09:16.837Z,77.70
2023-03-10T18:11:44.759Z,77.80
2023-03-10T18:14:14.125Z,75.80
2023-03-10T18:16:42.308Z,75.50
2023-03-10T18:19:11.648Z,74.90
2023-03-10T18:21:39.712Z,75.40
2023-03-10T18:24:08.800Z,74.30
2023-03-10T18:26:37.954Z,75.30
2023-03-10T18:29:06.080Z,74.30
2023-03-10T18:31:35.402Z,76.30
2023-03-10T18:34:04.058Z,75.30
2023-03-10T18:36:33.791Z,75.80
2023-03-10T18:39:03.958Z,76.40
2023-03-10T18:41:32.780Z,77.20
2023-03-10T18:44:01.111Z,76.60
2023-03-10T18:46:28.990Z,76.70
2023-03-10T18:48:56.950Z,78.50
2023-03-10T18:51:25.839Z,79.00
2023-03-10T18:53:55.420Z,80.00
2023-03-10T18:56:25.776Z,82.90
2023-03-10T18:58:53.891Z,83.60
2023-03-10T19:01:22.454Z,83.20
2023-03-10T19:03:50.321Z,82.40
2023-03-10T19:06:18.328Z,82.50
2023-03-10T19:08:46.189Z,81.30
2023-03-10T19:11:15.805Z,81.70
2023-03-10T19:13:45.007Z,82.60
2023-03-10T19:16:13.368Z,83.00
2023-03-10T19:18:41.523Z,84.60
2023-03-10T19:21:10.541Z,86.00
2023-03-10T19:23:38.401Z,87.10
2023-03-10T19:26:07.063Z,86.60
2023-03-10T19:28:36.571Z,84.80
2023-03-10T19:31:09.912Z,84.40
2023-03-10T19:33:39.764Z,85.80
2023-03-10T19:36:11.706Z,87.90
2023-03-10T19:38:41.169Z,88.00
2023-03-10T19:41:13.088Z,86.40
2023-03-10T19:43:42.314Z,84.20
2023-03-10T19:46:12.481Z,83.90
2023-03-10T19:48:40.980Z,82.20
2023-03-10T19:51:09.303Z,80.50
2023-03-10T19:53:37.209Z,79.00
2023-03-10T19:56:07.622Z,79.10
2023-03-10T19:58:35.589Z,78.30
2023-03-10T20:01:05.246Z,78.90
2023-03-10T20:03:34.140Z,78.50
2023-03-10T20:06:04.140Z,77.20
2023-03-10T20:08:31.971Z,78.00
2023-03-10T20:11:02.100Z,75.50
2023-03-10T20:13:30.301Z,75.60
2023-03-10T20:15:58.814Z,75.60
2023-03-10T20:18:29.026Z,75.60
2023-03-10T20:20:56.907Z,75.90
2023-03-10T20:23:25.092Z,75.10
2023-03-10T20:26:01.357Z,75.40
2023-03-10T20:28:29.816Z,76.80
2023-03-10T20:30:57.778Z,76.30
2023-03-10T20:33:25.696Z,78.50
2023-03-10T20:35:55.283Z,79.40
2023-03-10T20:38:23.442Z,79.10
2023-03-10T20:40:51.287Z,79.40
2023-03-10T20:43:19.191Z,79.10
2023-03-10T20:45:47.011Z,78.80
2023-03-10T20:48:14.910Z,78.10
2023-03-10T20:50:42.693Z,78.70
2023-03-10T20:53:12.396Z,78.30
2023-03-10T20:55:42.915Z,79.60
2023-03-10T20:58:10.727Z,79.90
2023-03-10T21:00:38.648Z,81.20
2023-03-10T21:03:06.619Z,82.30
2023-03-10T21:05:34.407Z,83.70
2023-03-10T21:08:02.311Z,85.50
2023-03-10T21:10:32.831Z,86.10
2023-03-10T21:13:00.692Z,86.40
2023-03-10T21:15:28.503Z,85.20
2023-03-10T21:17:56.613Z,86.50
2023-03-10T21:20:25.311Z,88.30
2023-03-10T21:22:53.207Z,89.20
2023-03-10T21:25:23.551Z,89.20
2023-03-10T21:27:56.352Z,90.30
2023-03-10T21:30:24.746Z,90.90
2023-03-10T21:32:52.717Z,91.50
2023-03-10T21:35:20.839Z,92.10
2023-03-10T21:37:49.437Z,92.70
2023-03-10T21:40:20.722Z,93.60
2023-03-10T21:42:49.377Z,94.40
2023-03-10T21:45:21.349Z,94.60
2023-03-10T21:47:49.234Z,94.00
2023-03-10T21:50:17.682Z,92.90
2023-03-10T21:52:46.186Z,93.40
2023-03-10T21:55:19.510Z,93.80
2023-03-10T21:57:47.861Z,94.40
2023-03-10T22:00:20.006Z,93.20
2023-03-10T22:02:48.513Z,89.80
2023-03-10T22:05:18.615Z,88.70
2023-03-10T22:07:46.867Z,88.60
2023-03-10T22:10:15.649Z,88.40
2023-03-10T22:12:43.483Z,87.00
2023-03-10T22:15:16.790Z,86.00
2023-03-10T22:17:46.096Z,85.80
2023-03-10T22:20:18.361Z,83.40
2023-03-10T22:22:46.348Z,84.00
2023-03-10T22:25:14.920Z,84.30
2023-03-10T22:27:43.135Z,84.20
2023-03-10T22:30:14.031Z,84.40
2023-03-10T22:32:42.277Z,82.40
2023-03-10T22:35:11.775Z,82.20
2023-03-10T22:37:40.662Z,82.30
2023-03-10T22:40:11.005Z,80.40
2023-03-10T22:42:39.426Z,81.10
2023-03-10T22:45:11.267Z,81.40
2023-03-10T22:47:39.238Z,81.90
2023-03-10T22:50:07.912Z,81.90
2023-03-10T22:52:37.090Z,82.20
2023-03-10T22:55:05.170Z,81.00
2023-03-10T22:57:32.990Z,81.80
2023-03-10T23:00:00.829Z,81.70
2023-03-10T23:02:28.632Z,80.90
2023-03-10T23:04:57.275Z,80.40
2023-03-10T23:07:25.122Z,81.00
2023-03-10T23:09:54.304Z,81.80
2023-03-10T23:12:22.225Z,79.20
2023-03-10T23:14:50.042Z,82.70
2023-03-10T23:17:17.867Z,82.50
2023-03-10T23:19:48.036Z,83.20
2023-03-10T23:22:15.902Z,80.70
2023-03-10T23:24:43.690Z,81.50
2023-03-10T23:27:13.076Z,81.30
2023-03-10T23:29:40.915Z,82.20
2023-03-10T23:32:09.351Z,80.70
2023-03-10T23:34:37.369Z,79.20
2023-03-10T23:37:05.565Z,79.20
2023-03-10T23:39:33.394Z,79.80
2023-03-10T23:42:01.256Z,79.30
2023-03-10T23:44:30.434Z,80.60
2023-03-10T23:46:58.381Z,81.30
2023-03-10T23:49:26.264Z,80.80
2023-03-10T23:51:54.452Z,80.60
2023-03-10T23:54:22.816Z,80.30
2023-03-10T23:56:51.354Z,79.70
2023-03-10T23:59:19.190Z,80.40
